createdAt,value
2018-07-03T00:04:13.291Z,92.60
2018-07-03T00:06:41.801Z,92.90
2018-07-03T00:09:10.799Z,93.20
2018-07-03T00:14:07.801Z,93.10
2018-07-03T00:16:41.619Z,92.70
2018-07-03T00:19:10.152Z,92.10
2018-07-03T00:24:07.002Z,93.50
2018-07-03T00:26:35.461Z,93.40
2018-07-03T00:29:04.103Z,92.60
2018-07-03T00:31:32.563Z,92.60
2018-07-03T00:34:01.235Z,92.50
2018-07-03T00:36:29.702Z,92.60
2018-07-03T00:38:58.230Z,92.20
2018-07-03T00:41:26.890Z,92.10
2018-07-03T00:43:55.571Z,92.60
2018-07-03T00:46:24.067Z,92.80
2018-07-03T00:48:52.538Z,93.00
2018-07-03T00:51:21.178Z,92.80
2018-07-03T00:53:49.681Z,92.90
2018-07-03T00:56:18.368Z,93.80
2018-07-03T00:58:46.818Z,94.70
2018-07-03T01:01:15.447Z,94.40
2018-07-03T01:03:43.965Z,95.00
2018-07-03T01:06:12.639Z,95.10
2018-07-03T01:08:41.119Z,95.30
2018-07-03T01:11:09.880Z,96.00
2018-07-03T01:13:38.619Z,96.20
2018-07-03T01:16:07.122Z,96.20
2018-07-03T01:18:35.692Z,96.20
2018-07-03T01:21:04.298Z,97.00
2018-07-03T01:23:32.830Z,97.20
2018-07-03T01:26:01.323Z,97.20
2018-07-03T01:28:29.995Z,97.50
2018-07-03T01:30:58.591Z,97.80
2018-07-03T01:33:27.258Z,96.20
2018-07-03T01:35:55.706Z,96.30
2018-07-03T01:38:24.474Z,96.70
2018-07-03T01:40:52.921Z,97.40
2018-07-03T01:43:21.395Z,97.60
2018-07-03T01:45:49.922Z,97.70
2018-07-03T01:48:18.374Z,98.10
2018-07-03T01:50:46.890Z,98.10
2018-07-03T01:53:15.401Z,98.30
2018-07-03T01:58:12.426Z,98.90
2018-07-03T02:00:41.142Z,98.70
2018-07-03T02:03:09.643Z,98.40
2018-07-03T02:05:38.186Z,98.80
2018-07-03T02:08:06.783Z,98.60
2018-07-03T02:10:35.278Z,98.70
2018-07-03T02:13:03.858Z,99.00
2018-07-03T02:15:32.405Z,99.30
2018-07-03T02:18:01.102Z,99.40
2018-07-03T02:20:29.595Z,99.50
2018-07-03T02:22:58.178Z,98.30
2018-07-03T02:25:26.755Z,98.70
2018-07-03T02:27:55.318Z,99.40
2018-07-03T02:30:23.891Z,99.70
2018-07-03T02:32:52.553Z,99.60
2018-07-03T02:35:21.031Z,99.70
2018-07-03T02:37:49.491Z,99.90
2018-07-03T02:40:18.232Z,99.90
2018-07-03T02:42:46.703Z,98.90
2018-07-03T02:45:15.326Z,98.50
2018-07-03T02:47:43.927Z,99.20
2018-07-03T02:50:12.488Z,99.80
2018-07-03T02:52:40.985Z,99.70
2018-07-03T02:55:09.598Z,99.90
2018-07-03T02:57:38.114Z,99.90
2018-07-03T03:00:06.983Z,99.90
2018-07-03T03:02:35.650Z,99.90
2018-07-03T03:05:04.480Z,99.90
2018-07-03T03:07:33.088Z,99.90
2018-07-03T03:10:01.615Z,99.90
2018-07-03T03:12:30.079Z,99.90
2018-07-03T03:14:58.719Z,99.90
2018-07-03T03:17:27.247Z,99.90
2018-07-03T03:19:55.874Z,99.90
2018-07-03T03:22:24.484Z,99.90
2018-07-03T03:24:52.938Z,99.90
2018-07-03T03:27:21.575Z,99.90
2018-07-03T03:29:50.218Z,99.90
2018-07-03T03:32:18.740Z,99.90
2018-07-03T03:34:47.247Z,99.90
2018-07-03T03:37:16.019Z,99.90
2018-07-03T03:39:44.504Z,99.90
2018-07-03T03:42:13.013Z,99.90
2018-07-03T03:44:41.527Z,99.90
2018-07-03T03:47:10.008Z,99.90
2018-07-03T03:49:38.642Z,99.90
2018-07-03T03:52:07.162Z,99.90
2018-07-03T03:54:35.882Z,99.90
2018-07-03T03:57:04.382Z,99.90
2018-07-03T03:59:33.042Z,99.90
2018-07-03T04:02:01.550Z,99.90
2018-07-03T04:06:58.323Z,99.90
2018-07-03T04:09:26.794Z,99.90
2018-07-03T04:11:55.267Z,99.90
2018-07-03T04:14:23.842Z,99.90
2018-07-03T04:16:52.434Z,99.90
2018-07-03T04:19:20.931Z,99.90
2018-07-03T04:21:49.466Z,99.90
2018-07-03T04:24:17.981Z,99.90
2018-07-03T04:26:46.531Z,99.90
2018-07-03T04:29:15.154Z,99.90
2018-07-03T04:31:43.635Z,99.90
2018-07-03T04:34:12.340Z,99.90
2018-07-03T04:36:40.951Z,99.90
2018-07-03T04:39:10.571Z,99.90
2018-07-03T04:41:39.396Z,99.90
2018-07-03T04:44:08.048Z,99.90
2018-07-03T04:46:36.732Z,99.90
2018-07-03T04:49:05.232Z,99.90
2018-07-03T04:51:34.100Z,99.90
2018-07-03T04:54:02.594Z,99.90
2018-07-03T04:56:31.081Z,99.90
2018-07-03T04:58:59.531Z,99.90
2018-07-03T05:01:28.131Z,99.90
2018-07-03T05:03:56.718Z,99.90
2018-07-03T05:06:25.183Z,99.90
2018-07-03T05:08:53.739Z,99.90
2018-07-03T05:11:22.367Z,99.90
2018-07-03T05:13:51.303Z,99.90
2018-07-03T05:16:19.771Z,99.90
2018-07-03T05:18:48.535Z,99.90
2018-07-03T05:21:17.215Z,99.90
2018-07-03T05:23:45.862Z,99.90
2018-07-03T05:26:14.379Z,99.90
2018-07-03T05:28:42.867Z,99.90
2018-07-03T05:31:11.509Z,99.90
2018-07-03T05:33:39.983Z,99.90
2018-07-03T05:36:08.638Z,99.90
2018-07-03T05:38:37.301Z,99.90
2018-07-03T05:41:06.167Z,99.90
2018-07-03T05:43:34.758Z,99.90
2018-07-03T05:46:03.809Z,99.90
2018-07-03T05:48:32.287Z,99.90
2018-07-03T05:51:00.779Z,99.90
2018-07-03T05:53:29.510Z,99.90
2018-07-03T05:55:58.086Z,99.90
2018-07-03T06:00:54.812Z,99.90
2018-07-03T06:03:23.290Z,99.90
2018-07-03T06:05:51.823Z,99.90
2018-07-03T06:08:20.319Z,99.90
2018-07-03T06:10:49.022Z,99.90
2018-07-03T06:13:17.547Z,99.90
2018-07-03T06:15:46.146Z,99.90
2018-07-03T06:18:14.650Z,99.90
2018-07-03T06:20:44.227Z,99.90
2018-07-03T06:23:12.693Z,99.90
2018-07-03T06:25:41.211Z,99.90
2018-07-03T06:28:09.667Z,99.90
2018-07-03T06:30:38.148Z,99.90
2018-07-03T06:33:06.693Z,99.90
2018-07-03T06:35:35.331Z,99.90
2018-07-03T06:38:04.047Z,99.90
2018-07-03T06:40:32.555Z,99.90
2018-07-03T06:43:01.042Z,99.90
2018-07-03T06:45:29.510Z,99.90
2018-07-03T06:47:58.222Z,99.90
2018-07-03T06:50:27.019Z,99.90
2018-07-03T06:52:55.650Z,99.90
2018-07-03T06:55:24.129Z,99.90
2018-07-03T06:57:52.739Z,99.90
2018-07-03T07:00:21.353Z,99.90
2018-07-03T07:02:49.992Z,99.90
2018-07-03T07:05:18.479Z,99.90
2018-07-03T07:07:47.071Z,99.90
2018-07-03T07:10:15.546Z,99.90
2018-07-03T07:12:44.220Z,99.90
2018-07-03T07:15:12.698Z,99.90
2018-07-03T07:17:41.327Z,99.90
2018-07-03T07:20:09.879Z,99.90
2018-07-03T07:22:38.484Z,99.90
2018-07-03T07:25:07.068Z,99.90
2018-07-03T07:27:35.547Z,99.90
2018-07-03T07:30:04.894Z,99.90
2018-07-03T07:32:33.434Z,99.90
2018-07-03T07:35:01.995Z,99.90
2018-07-03T07:37:30.542Z,99.90
2018-07-03T07:39:59.034Z,99.90
2018-07-03T07:42:27.766Z,99.90
2018-07-03T07:44:56.239Z,99.90
2018-07-03T07:47:24.725Z,99.90
2018-07-03T07:52:21.389Z,99.90
2018-07-03T07:54:49.905Z,99.90
2018-07-03T07:57:18.399Z,99.90
2018-07-03T07:59:46.970Z,99.90
2018-07-03T08:02:15.502Z,99.90
2018-07-03T08:04:43.987Z,99.90
2018-07-03T08:07:12.459Z,99.90
2018-07-03T08:09:40.938Z,99.80
2018-07-03T08:12:09.463Z,99.40
2018-07-03T08:14:37.979Z,99.70
2018-07-03T08:17:06.711Z,98.50
2018-07-03T08:19:35.176Z,99.00
2018-07-03T08:22:03.717Z,98.50
2018-07-03T08:24:32.302Z,97.80
2018-07-03T08:27:00.974Z,97.70
2018-07-03T08:29:29.553Z,97.20
2018-07-03T08:31:58.080Z,97.30
2018-07-03T08:34:26.621Z,97.10
2018-07-03T08:36:55.155Z,96.90
2018-07-03T08:39:24.024Z,95.50
2018-07-03T08:41:52.639Z,96.80
2018-07-03T08:44:21.103Z,94.00
2018-07-03T08:46:49.763Z,93.30
2018-07-03T08:49:18.230Z,92.50
2018-07-03T08:51:47.009Z,93.00
2018-07-03T08:54:15.979Z,94.80
2018-07-03T08:56:44.475Z,93.80
2018-07-03T08:59:12.989Z,91.60
2018-07-03T09:01:41.474Z,91.10
2018-07-03T09:04:10.147Z,92.80
2018-07-03T09:06:38.635Z,91.30
2018-07-03T09:09:09.307Z,90.60
2018-07-03T09:11:37.881Z,86.50
2018-07-03T09:14:06.843Z,85.40
2018-07-03T09:16:35.582Z,87.90
2018-07-03T09:19:04.055Z,86.40
2018-07-03T09:21:32.796Z,83.20
2018-07-03T09:24:01.467Z,85.00
2018-07-03T09:26:29.982Z,81.20
2018-07-03T09:28:58.642Z,84.80
2018-07-03T09:31:27.227Z,84.20
2018-07-03T09:33:56.036Z,80.80
2018-07-03T09:36:24.584Z,79.80
2018-07-03T09:38:53.171Z,79.20
2018-07-03T09:41:21.884Z,78.20
2018-07-03T09:43:50.358Z,79.60
2018-07-03T09:46:18.955Z,77.20
2018-07-03T09:48:47.520Z,76.50
2018-07-03T09:51:16.074Z,76.40
2018-07-03T09:53:44.587Z,78.40
2018-07-03T09:56:13.240Z,74.20
2018-07-03T09:58:41.802Z,71.60
2018-07-03T10:01:15.650Z,73.20
2018-07-03T10:03:44.436Z,78.20
2018-07-03T10:06:13.139Z,78.80
2018-07-03T10:08:41.615Z,76.60
2018-07-03T10:11:10.230Z,74.40
2018-07-03T10:13:38.702Z,76.80
2018-07-03T10:16:07.575Z,77.50
2018-07-03T10:18:36.106Z,71.40
2018-07-03T10:21:04.707Z,76.20
2018-07-03T10:23:33.302Z,75.00
2018-07-03T10:26:01.920Z,81.10
2018-07-03T10:28:30.626Z,78.60
2018-07-03T10:30:59.194Z,81.70
2018-07-03T10:33:27.924Z,75.90
2018-07-03T10:35:56.555Z,76.90
2018-07-03T10:38:25.072Z,72.70
2018-07-03T10:40:53.678Z,69.90
2018-07-03T10:43:22.239Z,72.40
2018-07-03T10:45:50.815Z,73.20
2018-07-03T10:48:19.439Z,73.90
2018-07-03T10:50:47.909Z,75.10
2018-07-03T10:53:16.492Z,77.00
2018-07-03T10:55:45.037Z,72.40
2018-07-03T10:58:13.607Z,74.80
2018-07-03T11:00:42.092Z,69.80
2018-07-03T11:03:10.814Z,65.70
2018-07-03T11:05:39.418Z,72.20
2018-07-03T11:08:07.974Z,70.70
2018-07-03T11:10:36.672Z,72.90
2018-07-03T11:13:05.214Z,73.20
2018-07-03T11:15:33.908Z,69.10
2018-07-03T11:18:02.507Z,67.40
2018-07-03T11:20:31.115Z,73.00
2018-07-03T11:22:59.631Z,67.10
2018-07-03T11:25:28.541Z,68.60
2018-07-03T11:27:57.237Z,74.40
2018-07-03T11:30:25.761Z,70.70
2018-07-03T11:32:54.323Z,73.80
2018-07-03T11:35:22.886Z,71.20
2018-07-03T11:37:51.375Z,69.00
2018-07-03T11:40:19.983Z,67.10
2018-07-03T11:42:48.592Z,64.20
2018-07-03T11:45:17.131Z,71.50
2018-07-03T11:47:45.819Z,67.60
2018-07-03T11:50:14.507Z,65.70
2018-07-03T11:52:42.978Z,68.20
2018-07-03T11:55:11.658Z,66.60
2018-07-03T11:57:40.217Z,69.10
2018-07-03T12:00:08.933Z,65.10
2018-07-03T12:02:37.507Z,62.70
2018-07-03T12:05:06.242Z,62.10
2018-07-03T12:07:34.878Z,68.50
2018-07-03T12:10:03.593Z,62.20
2018-07-03T12:12:32.204Z,66.20
2018-07-03T12:15:00.700Z,65.80
2018-07-03T12:17:29.264Z,61.00
2018-07-03T12:19:57.840Z,61.20
2018-07-03T12:22:26.374Z,61.60
2018-07-03T12:24:54.896Z,59.20
2018-07-03T12:29:51.786Z,60.50
2018-07-03T12:32:20.443Z,59.40
2018-07-03T12:34:49.147Z,57.90
2018-07-03T12:37:17.694Z,61.30
2018-07-03T12:39:46.214Z,59.90
2018-07-03T12:42:14.711Z,62.90
2018-07-03T12:44:43.367Z,61.60
2018-07-03T12:47:11.882Z,57.80
2018-07-03T12:49:40.493Z,59.90
2018-07-03T12:52:09.048Z,58.30
2018-07-03T12:54:37.640Z,56.70
2018-07-03T12:57:06.240Z,64.90
2018-07-03T12:59:34.703Z,59.50
2018-07-03T13:02:03.348Z,61.30
2018-07-03T13:04:31.878Z,57.20
2018-07-03T13:07:00.394Z,56.10
2018-07-03T13:09:28.882Z,59.20
2018-07-03T13:11:57.574Z,59.60
2018-07-03T13:14:26.097Z,58.60
2018-07-03T13:16:54.823Z,57.40
2018-07-03T13:19:23.350Z,59.80
2018-07-03T13:21:51.919Z,55.50
2018-07-03T13:24:20.485Z,56.30
2018-07-03T13:26:48.979Z,57.30
2018-07-03T13:29:17.742Z,57.20
2018-07-03T13:31:46.289Z,57.10
2018-07-03T13:34:14.975Z,55.40
2018-07-03T13:36:43.464Z,57.30
2018-07-03T13:39:12.276Z,57.50
2018-07-03T13:41:40.895Z,55.70
2018-07-03T13:44:09.505Z,56.80
2018-07-03T13:46:38.055Z,56.00
2018-07-03T13:49:06.660Z,55.40
2018-07-03T13:51:35.139Z,57.50
2018-07-03T13:54:03.830Z,55.70
2018-07-03T13:56:32.476Z,56.80
2018-07-03T13:59:00.947Z,54.00
2018-07-03T14:01:29.479Z,52.40
2018-07-03T14:03:58.306Z,55.20
2018-07-03T14:06:26.843Z,54.60
2018-07-03T14:08:55.432Z,55.30
2018-07-03T14:11:24.010Z,57.40
2018-07-03T14:13:52.606Z,63.50
2018-07-03T14:16:21.162Z,57.80
2018-07-03T14:18:49.767Z,54.30
2018-07-03T14:21:18.287Z,56.80
2018-07-03T14:23:46.967Z,58.00
2018-07-03T14:26:15.635Z,62.40
2018-07-03T14:28:44.140Z,58.50
2018-07-03T14:31:12.785Z,58.30
2018-07-03T14:33:41.303Z,57.70
2018-07-03T14:36:10.496Z,62.00
2018-07-03T14:38:39.036Z,54.30
2018-07-03T14:41:07.552Z,55.30
2018-07-03T14:43:36.200Z,53.40
2018-07-03T14:46:05.033Z,55.10
2018-07-03T14:48:33.536Z,53.00
2018-07-03T14:51:02.008Z,53.00
2018-07-03T14:53:30.606Z,55.30
2018-07-03T14:55:59.226Z,54.30
2018-07-03T14:58:27.932Z,57.70
2018-07-03T15:00:56.630Z,56.00
2018-07-03T15:03:25.166Z,59.30
2018-07-03T15:05:53.866Z,56.50
2018-07-03T15:08:23.494Z,55.80
2018-07-03T15:10:52.159Z,60.20
2018-07-03T15:13:20.656Z,58.10
2018-07-03T15:15:49.166Z,58.10
2018-07-03T15:18:17.792Z,57.40
2018-07-03T15:20:46.327Z,55.10
2018-07-03T15:23:15.015Z,54.70
2018-07-03T15:25:43.512Z,57.80
2018-07-03T15:28:11.955Z,53.70
2018-07-03T15:30:40.522Z,58.20
2018-07-03T15:33:09.084Z,55.10
2018-07-03T15:35:37.575Z,59.30
2018-07-03T15:38:06.092Z,55.20
2018-07-03T15:40:34.584Z,54.60
2018-07-03T15:43:03.206Z,53.70
2018-07-03T15:45:31.770Z,53.80
2018-07-03T15:48:00.360Z,52.10
2018-07-03T15:50:28.886Z,53.10
2018-07-03T15:52:57.519Z,52.10
2018-07-03T15:55:26.026Z,52.50
2018-07-03T15:57:54.592Z,55.40
2018-07-03T16:00:23.103Z,53.90
2018-07-03T16:03:02.732Z,55.10
2018-07-03T16:06:17.588Z,53.30
2018-07-03T16:08:57.879Z,53.40
2018-07-03T16:11:26.412Z,51.60
2018-07-03T16:13:55.027Z,56.40
2018-07-03T16:16:23.542Z,55.30
2018-07-03T16:18:52.187Z,58.10
2018-07-03T16:21:20.752Z,53.40
2018-07-03T16:23:49.263Z,51.20
2018-07-03T16:26:17.898Z,50.50
2018-07-03T16:28:46.492Z,50.60
2018-07-03T16:31:15.200Z,55.80
2018-07-03T16:33:43.783Z,52.90
2018-07-03T16:36:12.490Z,51.40
2018-07-03T16:38:41.054Z,50.70
2018-07-03T16:41:09.564Z,59.30
2018-07-03T16:43:38.076Z,55.20
2018-07-03T16:46:06.810Z,53.00
2018-07-03T16:48:35.426Z,51.40
2018-07-03T16:51:04.187Z,52.60
2018-07-03T16:53:32.708Z,55.30
2018-07-03T16:56:01.376Z,52.70
2018-07-03T16:58:29.925Z,54.40
2018-07-03T17:00:58.463Z,51.40
2018-07-03T17:03:27.043Z,51.70
2018-07-03T17:05:55.777Z,57.30
2018-07-03T17:08:24.380Z,54.30
2018-07-03T17:10:53.058Z,52.90
2018-07-03T17:13:21.644Z,51.70
2018-07-03T17:15:50.350Z,52.50
2018-07-03T17:18:19.056Z,51.10
2018-07-03T17:20:47.721Z,52.70
2018-07-03T17:23:16.363Z,52.10
2018-07-03T17:25:45.067Z,52.10
2018-07-03T17:28:14.011Z,48.70
2018-07-03T17:30:42.535Z,50.30
2018-07-03T17:33:11.087Z,55.30
2018-07-03T17:35:39.799Z,50.60
2018-07-03T17:38:08.423Z,51.70
2018-07-03T17:40:48.191Z,55.30
2018-07-03T17:44:10.670Z,52.90
2018-07-03T17:46:39.173Z,53.60
2018-07-03T17:49:08.167Z,51.10
2018-07-03T17:51:37.152Z,52.20
2018-07-03T17:54:06.022Z,51.20
2018-07-03T17:56:34.543Z,49.80
2018-07-03T17:59:03.417Z,55.60
2018-07-03T18:01:32.108Z,53.50
2018-07-03T18:04:00.734Z,55.20
2018-07-03T18:06:29.393Z,53.90
2018-07-03T18:08:57.930Z,54.70
2018-07-03T18:11:26.539Z,58.80
2018-07-03T18:13:55.082Z,58.50
2018-07-03T18:16:23.708Z,56.20
2018-07-03T18:18:57.697Z,57.20
2018-07-03T18:21:26.223Z,59.50
2018-07-03T18:23:54.898Z,55.70
2018-07-03T18:26:23.468Z,56.40
2018-07-03T18:28:52.272Z,56.10
2018-07-03T18:31:20.878Z,54.90
2018-07-03T18:33:49.494Z,55.40
2018-07-03T18:36:18.249Z,54.80
2018-07-03T18:38:46.916Z,54.90
2018-07-03T18:41:15.458Z,58.40
2018-07-03T18:43:43.991Z,60.00
2018-07-03T18:46:12.687Z,57.90
2018-07-03T18:48:41.348Z,57.50
2018-07-03T18:51:09.939Z,58.50
2018-07-03T18:53:38.508Z,59.50
2018-07-03T18:56:07.327Z,58.90
2018-07-03T18:58:35.885Z,59.80
2018-07-03T19:01:04.545Z,63.60
2018-07-03T19:03:33.094Z,63.70
2018-07-03T19:06:01.668Z,61.90
2018-07-03T19:08:30.320Z,62.90
2018-07-03T19:10:59.159Z,62.00
2018-07-03T19:13:27.722Z,64.80
2018-07-03T19:15:56.263Z,66.90
2018-07-03T19:18:24.842Z,68.60
2018-07-03T19:20:53.393Z,69.80
2018-07-03T19:23:21.952Z,70.70
2018-07-03T19:25:50.472Z,71.60
2018-07-03T19:28:19.098Z,71.50
2018-07-03T19:30:47.707Z,71.90
2018-07-03T19:33:16.336Z,71.50
2018-07-03T19:35:45.117Z,71.10
2018-07-03T19:38:13.688Z,73.20
2018-07-03T19:40:42.403Z,73.00
2018-07-03T19:43:28.297Z,73.10
2018-07-03T19:45:57.642Z,74.20
2018-07-03T19:48:26.264Z,75.30
2018-07-03T19:50:55.079Z,77.70
2018-07-03T19:53:23.671Z,77.20
2018-07-03T19:55:53.549Z,75.30
2018-07-03T19:58:22.741Z,76.10
2018-07-03T20:00:52.607Z,75.60
2018-07-03T20:03:21.450Z,75.90
2018-07-03T20:05:50.130Z,77.30
2018-07-03T20:08:18.878Z,77.60
2018-07-03T20:10:47.418Z,77.40
2018-07-03T20:13:17.195Z,77.80
2018-07-03T20:15:45.757Z,79.90
2018-07-03T20:18:15.376Z,80.70
2018-07-03T20:20:44.063Z,81.40
2018-07-03T20:23:12.598Z,83.30
2018-07-03T20:25:41.181Z,82.90
2018-07-03T20:28:09.867Z,83.10
2018-07-03T20:30:38.491Z,84.70
2018-07-03T20:35:35.243Z,84.60
2018-07-03T20:38:04.949Z,83.10
2018-07-03T20:41:06.905Z,85.40
2018-07-03T20:43:36.861Z,85.00
2018-07-03T20:46:05.923Z,85.40
2018-07-03T20:48:34.549Z,85.60
2018-07-03T21:02:48.714Z,86.40
2018-07-03T21:05:17.303Z,87.30
2018-07-03T21:07:46.011Z,86.30
2018-07-03T21:10:14.502Z,85.90
2018-07-03T21:12:43.024Z,86.10
2018-07-03T21:15:11.619Z,86.00
2018-07-03T21:17:40.217Z,86.20
2018-07-03T21:20:08.791Z,84.40
2018-07-03T21:22:37.595Z,85.40
2018-07-03T21:25:06.240Z,85.60
2018-07-03T21:27:34.728Z,84.40
2018-07-03T21:30:03.368Z,85.00
2018-07-03T21:32:31.882Z,86.60
2018-07-03T21:35:00.418Z,88.10
2018-07-03T21:37:29.034Z,91.00
2018-07-03T21:39:57.515Z,89.40
2018-07-03T21:42:26.035Z,87.10
2018-07-03T21:44:54.599Z,87.80
2018-07-03T21:47:23.264Z,85.80
2018-07-03T21:49:51.843Z,87.00
2018-07-03T21:52:20.335Z,87.40
2018-07-03T21:54:48.916Z,86.40
2018-07-03T21:57:17.657Z,87.30
2018-07-03T21:59:46.147Z,88.20
2018-07-03T22:02:14.634Z,90.20
2018-07-03T22:04:43.225Z,89.80
2018-07-03T22:07:11.983Z,90.20
2018-07-03T22:09:40.692Z,90.40
2018-07-03T22:12:09.175Z,90.40
2018-07-03T22:14:39.623Z,90.60
2018-07-03T22:17:08.884Z,90.40
2018-07-03T22:19:37.358Z,90.90
2018-07-03T22:22:05.857Z,91.40
2018-07-03T22:24:35.014Z,91.40
2018-07-03T22:27:03.958Z,91.50
2018-07-03T22:29:32.727Z,91.00
2018-07-03T22:32:01.472Z,91.20
2018-07-03T22:34:30.203Z,91.30
2018-07-03T22:36:58.879Z,92.20
2018-07-03T22:41:55.532Z,92.20
2018-07-03T22:44:24.239Z,91.90
2018-07-03T22:46:52.803Z,93.20
2018-07-03T22:51:49.737Z,92.50
2018-07-03T22:54:18.299Z,92.80
2018-07-03T22:56:46.762Z,93.10
2018-07-03T22:59:15.266Z,93.10
2018-07-03T23:01:43.876Z,93.30
2018-07-03T23:04:12.478Z,93.20
2018-07-03T23:06:40.966Z,93.50
2018-07-03T23:09:09.459Z,93.80
2018-07-03T23:11:38.002Z,93.90
2018-07-03T23:14:06.504Z,94.10
2018-07-03T23:16:34.971Z,94.30
2018-07-03T23:19:03.574Z,94.60
2018-07-03T23:21:32.100Z,95.10
2018-07-03T23:24:00.617Z,95.50
2018-07-03T23:28:57.390Z,96.50
2018-07-03T23:31:25.859Z,97.00
2018-07-03T23:33:54.366Z,97.70
2018-07-03T23:36:22.961Z,97.10
2018-07-03T23:38:51.497Z,97.90
2018-07-03T23:41:19.987Z,98.50
2018-07-03T23:43:48.611Z,98.60
2018-07-03T23:46:28.336Z,98.70
2018-07-03T23:49:08.170Z,99.00
2018-07-03T23:51:47.855Z,99.20
2018-07-03T23:54:27.681Z,99.80
2018-07-03T23:57:07.379Z,99.90
2018-07-03T23:59:47.146Z,99.50
